createdAt,value
2022-10-22T00:01:22.529Z,100.00
2022-10-22T00:09:05.645Z,100.00
2022-10-22T00:16:30.200Z,100.00
2022-10-22T00:20:20.660Z,100.00
2022-10-22T00:33:08.421Z,100.00
2022-10-22T00:36:39.833Z,100.00
2022-10-22T00:40:58.766Z,100.00
2022-10-22T00:49:48.889Z,100.00
2022-10-22T00:53:35.488Z,100.00
2022-10-22T00:57:00.696Z,100.00
2022-10-22T01:01:06.033Z,100.00
2022-10-22T01:04:11.703Z,100.00
2022-10-22T01:07:51.925Z,100.00
2022-10-22T01:24:19.304Z,100.00
2022-10-22T01:27:32.807Z,100.00
2022-10-22T01:30:47.210Z,100.00
2022-10-22T01:33:52.311Z,100.00
2022-10-22T01:36:56.694Z,100.00
2022-10-22T01:40:01.788Z,100.00
2022-10-22T01:43:07.208Z,100.00
2022-10-22T01:46:13.854Z,100.00
2022-10-22T01:49:23.475Z,100.00
2022-10-22T01:52:34.534Z,100.00
2022-10-22T01:55:47.062Z,100.00
2022-10-22T01:58:57.266Z,100.00
2022-10-22T02:02:07.092Z,100.00
2022-10-22T02:05:16.182Z,100.00
2022-10-22T02:08:22.763Z,100.00
2022-10-22T02:11:25.262Z,100.00
2022-10-22T02:14:30.780Z,100.00
2022-10-22T02:17:38.109Z,100.00
2022-10-22T02:20:43.130Z,100.00
2022-10-22T02:23:46.661Z,100.00
2022-10-22T02:26:56.792Z,100.00
2022-10-22T02:30:03.896Z,100.00
2022-10-22T02:33:12.650Z,100.00
2022-10-22T02:36:17.798Z,100.00
2022-10-22T02:39:21.851Z,100.00
2022-10-22T02:42:26.288Z,100.00
2022-10-22T02:45:28.938Z,100.00
2022-10-22T02:48:32.837Z,100.00
2022-10-22T02:51:35.626Z,100.00
2022-10-22T02:54:38.117Z,100.00
2022-10-22T02:57:40.810Z,100.00
2022-10-22T03:00:43.542Z,100.00
2022-10-22T03:03:47.399Z,100.00
2022-10-22T03:06:50.116Z,100.00
2022-10-22T03:09:52.606Z,100.00
2022-10-22T03:12:55.132Z,100.00
2022-10-22T03:15:57.701Z,100.00
2022-10-22T03:19:02.490Z,100.00
2022-10-22T03:22:10.040Z,100.00
2022-10-22T03:25:17.148Z,100.00
2022-10-22T03:28:19.792Z,100.00
2022-10-22T03:31:22.351Z,100.00
2022-10-22T03:34:26.165Z,100.00
2022-10-22T03:37:30.204Z,100.00
2022-10-22T03:40:32.758Z,100.00
2022-10-22T03:43:35.515Z,100.00
2022-10-22T03:46:37.969Z,100.00
2022-10-22T03:49:41.765Z,100.00
2022-10-22T03:52:44.269Z,100.00
2022-10-22T03:55:46.751Z,100.00
2022-10-22T03:58:49.233Z,100.00
2022-10-22T04:01:51.789Z,100.00
2022-10-22T04:04:55.579Z,100.00
2022-10-22T04:07:58.069Z,100.00
2022-10-22T04:11:00.556Z,100.00
2022-10-22T04:14:03.043Z,100.00
2022-10-22T04:17:05.514Z,100.00
2022-10-22T04:20:10.705Z,100.00
2022-10-22T04:23:13.553Z,100.00
2022-10-22T04:26:16.913Z,100.00
2022-10-22T04:29:19.385Z,100.00
2022-10-22T04:32:21.873Z,100.00
2022-10-22T04:38:33.111Z,100.00
2022-10-22T04:41:38.082Z,100.00
2022-10-22T04:44:40.551Z,100.00
2022-10-22T04:47:43.238Z,100.00
2022-10-22T04:50:47.302Z,100.00
2022-10-22T04:53:49.858Z,100.00
2022-10-22T04:56:52.340Z,100.00
2022-10-22T04:59:54.814Z,100.00
2022-10-22T05:02:57.290Z,100.00
2022-10-22T05:06:03.242Z,100.00
2022-10-22T05:09:09.185Z,100.00
2022-10-22T05:12:11.769Z,100.00
2022-10-22T05:15:14.226Z,100.00
2022-10-22T05:18:19.007Z,100.00
2022-10-22T05:21:25.681Z,100.00
2022-10-22T05:24:29.551Z,100.00
2022-10-22T05:27:32.033Z,100.00
2022-10-22T05:30:34.509Z,100.00
2022-10-22T05:33:37.034Z,100.00
2022-10-22T05:36:41.449Z,97.27
2022-10-22T05:39:43.926Z,99.54
2022-10-22T05:42:46.395Z,100.00
2022-10-22T05:45:48.865Z,100.00
2022-10-22T05:48:51.655Z,100.00
2022-10-22T05:51:55.454Z,100.00
2022-10-22T05:54:57.924Z,100.00
2022-10-22T05:58:00.390Z,100.00
2022-10-22T06:01:07.126Z,100.00
2022-10-22T06:04:12.905Z,100.00
2022-10-22T06:07:17.361Z,100.00
2022-10-22T06:10:22.309Z,100.00
2022-10-22T06:13:24.897Z,100.00
2022-10-22T06:16:30.446Z,100.00
2022-10-22T06:19:32.939Z,99.59
2022-10-22T06:22:38.087Z,98.83
2022-10-22T06:25:40.597Z,97.97
2022-10-22T06:28:43.100Z,98.28
2022-10-22T06:31:45.620Z,98.56
2022-10-22T06:34:48.228Z,98.95
2022-10-22T06:37:52.034Z,98.94
2022-10-22T06:40:54.472Z,98.52
2022-10-22T06:43:57.811Z,99.13
2022-10-22T06:47:00.830Z,100.00
2022-10-22T06:50:03.451Z,98.65
2022-10-22T06:53:07.293Z,98.37
2022-10-22T06:56:11.885Z,99.76
2022-10-22T06:59:14.350Z,100.00
2022-10-22T07:02:16.825Z,100.00
2022-10-22T07:05:19.376Z,100.00
2022-10-22T07:08:23.232Z,99.89
2022-10-22T07:11:27.334Z,100.00
2022-10-22T07:14:29.899Z,100.00
2022-10-22T07:17:32.387Z,100.00
2022-10-22T07:20:34.904Z,100.00
2022-10-22T07:23:39.308Z,100.00
2022-10-22T07:26:41.786Z,100.00
2022-10-22T07:29:44.264Z,100.00
2022-10-22T07:32:46.766Z,100.00
2022-10-22T07:35:49.291Z,99.77
2022-10-22T07:38:57.509Z,98.68
2022-10-22T07:41:59.998Z,98.90
2022-10-22T07:45:02.460Z,99.19
2022-10-22T07:48:05.465Z,99.46
2022-10-22T07:51:08.260Z,99.30
2022-10-22T07:54:12.051Z,100.00
2022-10-22T07:57:14.609Z,100.00
2022-10-22T08:00:19.449Z,98.77
2022-10-22T08:03:24.352Z,97.42
2022-10-22T08:06:26.846Z,98.12
2022-10-22T08:09:30.648Z,96.59
2022-10-22T08:12:33.116Z,96.26
2022-10-22T08:15:36.206Z,96.01
2022-10-22T08:18:39.484Z,95.19
2022-10-22T08:21:41.948Z,95.82
2022-10-22T08:24:45.765Z,96.29
2022-10-22T08:27:48.547Z,95.82
2022-10-22T08:30:51.041Z,93.71
2022-10-22T08:33:53.734Z,92.83
2022-10-22T08:36:56.630Z,91.47
2022-10-22T08:40:00.456Z,91.24
2022-10-22T08:43:22.429Z,91.86
2022-10-22T08:46:34.508Z,90.26
2022-10-22T08:49:41.341Z,92.50
2022-10-22T08:52:47.454Z,92.78
2022-10-22T08:55:54.921Z,92.20
2022-10-22T08:59:02.034Z,93.03
2022-10-22T09:02:14.462Z,92.71
2022-10-22T09:05:31.695Z,92.40
2022-10-22T09:08:35.243Z,92.63
2022-10-22T09:11:42.017Z,90.87
2022-10-22T09:14:44.710Z,92.61
2022-10-22T09:17:59.578Z,92.27
2022-10-22T09:21:13.278Z,91.59
2022-10-22T09:24:27.486Z,90.41
2022-10-22T09:27:33.414Z,90.73
2022-10-22T09:30:37.983Z,90.54
2022-10-22T09:33:41.776Z,90.00
2022-10-22T09:36:44.283Z,89.76
2022-10-22T09:39:49.121Z,89.49
2022-10-22T09:42:52.937Z,90.54
2022-10-22T09:46:00.482Z,90.13
2022-10-22T09:49:07.441Z,90.06
2022-10-22T09:52:36.474Z,88.25
2022-10-22T09:55:39.569Z,89.11
2022-10-22T09:58:45.888Z,88.91
2022-10-22T10:01:48.516Z,89.17
2022-10-22T10:04:57.192Z,89.66
2022-10-22T10:08:01.829Z,87.74
2022-10-22T10:11:11.700Z,87.40
2022-10-22T10:14:21.227Z,87.78
2022-10-22T10:17:37.576Z,89.17
2022-10-22T10:20:48.435Z,89.70
2022-10-22T10:23:58.932Z,89.44
2022-10-22T10:27:10.181Z,89.61
2022-10-22T10:30:17.860Z,89.56
2022-10-22T10:33:34.234Z,89.84
2022-10-22T10:36:45.448Z,89.24
2022-10-22T10:40:04.730Z,90.89
2022-10-22T10:56:39.907Z,100.00
2022-10-22T11:00:06.252Z,100.00
2022-10-22T11:03:49.819Z,100.00
2022-10-22T11:07:10.679Z,100.00
2022-10-22T11:10:28.592Z,100.00
2022-10-22T11:13:38.678Z,100.00
2022-10-22T11:16:47.056Z,100.00
2022-10-22T11:19:59.939Z,100.00
2022-10-22T11:23:22.143Z,100.00
2022-10-22T11:26:36.752Z,95.25
2022-10-22T11:29:45.340Z,96.53
2022-10-22T11:32:50.785Z,100.00
2022-10-22T11:35:54.220Z,100.00
2022-10-22T11:38:56.970Z,100.00
2022-10-22T11:42:00.481Z,100.00
2022-10-22T11:45:07.149Z,100.00
2022-10-22T11:48:18.882Z,100.00
2022-10-22T11:51:32.797Z,100.00
2022-10-22T11:54:43.533Z,100.00
2022-10-22T11:57:48.812Z,100.00
2022-10-22T12:00:52.669Z,95.93
2022-10-22T12:04:21.393Z,100.00
2022-10-22T12:07:34.356Z,99.65
2022-10-22T12:10:49.947Z,99.06
2022-10-22T12:13:59.444Z,97.58
2022-10-22T12:17:10.733Z,95.18
2022-10-22T12:20:17.568Z,94.81
2022-10-22T12:23:22.015Z,100.00
2022-10-22T12:26:27.069Z,98.19
2022-10-22T12:29:32.583Z,98.92
2022-10-22T12:32:38.346Z,100.00
2022-10-22T12:35:45.306Z,100.00
2022-10-22T12:38:48.397Z,100.00
2022-10-22T12:41:53.000Z,100.00
2022-10-22T12:44:56.769Z,93.88
2022-10-22T12:48:02.995Z,94.50
2022-10-22T12:51:09.453Z,94.94
2022-10-22T12:54:22.373Z,96.23
2022-10-22T12:57:26.184Z,94.50
2022-10-22T13:00:34.474Z,93.84
2022-10-22T13:03:43.412Z,89.30
2022-10-22T13:06:47.025Z,86.26
2022-10-22T13:09:59.063Z,84.73
2022-10-22T13:13:03.246Z,86.68
2022-10-22T13:16:20.430Z,86.37
2022-10-22T13:19:40.241Z,83.55
2022-10-22T13:22:54.488Z,82.80
2022-10-22T13:26:03.910Z,86.00
2022-10-22T13:29:14.628Z,87.00
2022-10-22T13:32:30.537Z,86.73
2022-10-22T13:35:37.810Z,84.87
2022-10-22T13:38:40.358Z,80.12
2022-10-22T13:41:42.892Z,80.38
2022-10-22T13:44:45.465Z,81.71
2022-10-22T13:47:51.755Z,84.52
2022-10-22T13:50:55.654Z,86.24
2022-10-22T13:53:58.452Z,86.82
2022-10-22T13:57:00.969Z,88.56
2022-10-22T14:00:03.479Z,87.21
2022-10-22T14:03:06.596Z,86.09
2022-10-22T14:06:14.578Z,88.59
2022-10-22T14:09:17.314Z,91.08
2022-10-22T14:12:19.885Z,88.40
2022-10-22T14:15:24.743Z,87.04
2022-10-22T14:18:31.662Z,85.34
2022-10-22T14:21:38.265Z,84.76
2022-10-22T14:24:40.712Z,84.92
2022-10-22T14:27:43.615Z,87.06
2022-10-22T14:30:47.357Z,86.69
2022-10-22T14:33:50.438Z,87.38
2022-10-22T14:36:54.346Z,89.17
2022-10-22T14:40:01.691Z,90.53
2022-10-22T14:43:04.479Z,89.92
2022-10-22T14:46:06.977Z,91.79
2022-10-22T14:49:09.537Z,92.01
2022-10-22T14:52:14.913Z,92.88
2022-10-22T14:55:19.940Z,92.95
2022-10-22T14:58:22.417Z,92.54
2022-10-22T15:01:24.914Z,92.14
2022-10-22T15:04:28.178Z,93.78
2022-10-22T15:07:32.038Z,93.13
2022-10-22T15:10:34.668Z,94.25
2022-10-22T15:13:37.152Z,94.04
2022-10-22T15:16:39.654Z,95.35
2022-10-22T15:19:43.476Z,96.04
2022-10-22T15:22:47.288Z,97.10
2022-10-22T15:25:49.841Z,98.12
2022-10-22T15:28:52.316Z,98.81
2022-10-22T15:31:57.792Z,99.33
2022-10-22T15:35:00.731Z,97.56
2022-10-22T15:38:06.512Z,97.70
2022-10-22T15:41:12.341Z,99.39
2022-10-22T15:44:17.378Z,100.00
2022-10-22T15:47:19.837Z,100.00
2022-10-22T15:50:22.353Z,100.00
2022-10-22T15:53:26.152Z,100.00
2022-10-22T15:56:30.630Z,100.00
2022-10-22T15:59:33.239Z,100.00
2022-10-22T16:02:35.754Z,100.00
2022-10-22T16:05:38.239Z,100.00
2022-10-22T16:08:42.054Z,100.00
2022-10-22T16:11:45.397Z,100.00
2022-10-22T16:14:50.827Z,100.00
2022-10-22T16:17:53.270Z,100.00
2022-10-22T16:20:55.737Z,100.00
2022-10-22T16:24:06.002Z,100.00
2022-10-22T16:27:09.766Z,100.00
2022-10-22T16:30:13.387Z,100.00
2022-10-22T16:33:15.836Z,100.00
2022-10-22T16:36:20.247Z,100.00
2022-10-22T16:39:24.524Z,100.00
2022-10-22T16:42:27.077Z,100.00
